sensor_id;sensor_type;location;lat;lon;timestamp;pressure;altitude;pressure_sealevel;temperature;humidity
7768;BME280;3928;42.626;23.382;2023-05-11T00:02:16;94348.59;;;11.98;75.65
7768;BME280;3928;42.626;23.382;2023-05-11T00:04:43;94386.38;;;11.96;77.48
7768;BME280;3928;42.626;23.382;2023-05-11T00:07:11;94379.31;;;12.04;76.78
7768;BME280;3928;42.626;23.382;2023-05-11T00:09:38;94386.81;;;12.15;76.41
7768;BME280;3928;42.626;23.382;2023-05-11T00:12:06;94390.16;;;12.20;75.89
7768;BME280;3928;42.626;23.382;2023-05-11T00:14:33;94393.84;;;12.08;76.78
7768;BME280;3928;42.626;23.382;2023-05-11T00:17:00;94393.00;;;12.06;76.88
7768;BME280;3928;42.626;23.382;2023-05-11T00:19:27;94397.13;;;12.13;76.83
7768;BME280;3928;42.626;23.382;2023-05-11T00:21:55;94389.28;;;12.19;76.70
7768;BME280;3928;42.626;23.382;2023-05-11T00:24:24;94388.66;;;12.10;76.99
7768;BME280;3928;42.626;23.382;2023-05-11T00:26:51;94394.38;;;12.22;76.72
7768;BME280;3928;42.626;23.382;2023-05-11T00:29:17;94396.13;;;12.20;76.37
7768;BME280;3928;42.626;23.382;2023-05-11T00:31:44;94387.47;;;12.24;76.29
7768;BME280;3928;42.626;23.382;2023-05-11T00:34:12;94385.78;;;11.82;78.35
7768;BME280;3928;42.626;23.382;2023-05-11T00:36:39;94389.03;;;11.91;77.94
7768;BME280;3928;42.626;23.382;2023-05-11T00:39:07;94396.97;;;11.79;78.46
7768;BME280;3928;42.626;23.382;2023-05-11T00:41:35;94402.53;;;12.01;77.87
7768;BME280;3928;42.626;23.382;2023-05-11T00:44:02;94400.94;;;11.95;77.76
7768;BME280;3928;42.626;23.382;2023-05-11T00:46:29;94402.63;;;11.98;77.92
7768;BME280;3928;42.626;23.382;2023-05-11T00:48:56;94405.91;;;12.03;77.69
7768;BME280;3928;42.626;23.382;2023-05-11T00:51:23;94385.38;;;12.02;77.20
7768;BME280;3928;42.626;23.382;2023-05-11T00:53:50;94370.31;;;11.85;77.42
7768;BME280;3928;42.626;23.382;2023-05-11T00:56:17;94403.81;;;11.79;78.92
7768;BME280;3928;42.626;23.382;2023-05-11T00:58:47;94406.06;;;11.95;78.31
7768;BME280;3928;42.626;23.382;2023-05-11T01:01:14;94388.09;;;11.94;77.70
7768;BME280;3928;42.626;23.382;2023-05-11T01:03:43;94398.69;;;11.79;78.22
7768;BME280;3928;42.626;23.382;2023-05-11T01:06:15;94400.47;;;11.75;77.89
7768;BME280;3928;42.626;23.382;2023-05-11T01:08:46;94403.19;;;11.67;78.04
7768;BME280;3928;42.626;23.382;2023-05-11T01:11:17;94403.22;;;11.66;78.20
7768;BME280;3928;42.626;23.382;2023-05-11T01:13:51;94388.69;;;11.63;78.62
7768;BME280;3928;42.626;23.382;2023-05-11T01:16:20;94407.94;;;11.89;77.81
7768;BME280;3928;42.626;23.382;2023-05-11T01:18:51;94401.53;;;11.65;78.93
7768;BME280;3928;42.626;23.382;2023-05-11T01:21:21;94403.00;;;11.77;77.94
7768;BME280;3928;42.626;23.382;2023-05-11T01:24:22;94404.56;;;11.87;77.67
7768;BME280;3928;42.626;23.382;2023-05-11T01:27:06;94404.31;;;11.99;77.35
7768;BME280;3928;42.626;23.382;2023-05-11T01:30:01;94409.47;;;11.97;76.99
7768;BME280;3928;42.626;23.382;2023-05-11T01:32:32;94375.31;;;11.46;78.05
7768;BME280;3928;42.626;23.382;2023-05-11T01:35:05;94400.66;;;11.64;79.03
7768;BME280;3928;42.626;23.382;2023-05-11T01:37:33;94403.06;;;11.74;77.94
7768;BME280;3928;42.626;23.382;2023-05-11T01:40:04;94398.25;;;11.57;78.28
7768;BME280;3928;42.626;23.382;2023-05-11T01:42:40;94403.13;;;11.26;78.98
7768;BME280;3928;42.626;23.382;2023-05-11T01:45:10;94387.72;;;11.23;79.00
7768;BME280;3928;42.626;23.382;2023-05-11T01:47:40;94400.53;;;11.26;79.13
7768;BME280;3928;42.626;23.382;2023-05-11T01:50:08;94399.81;;;11.18;78.91
7768;BME280;3928;42.626;23.382;2023-05-11T01:52:36;94406.56;;;11.25;79.00
7768;BME280;3928;42.626;23.382;2023-05-11T01:55:05;94402.81;;;11.41;77.60
7768;BME280;3928;42.626;23.382;2023-05-11T01:57:34;94400.09;;;11.50;76.93
7768;BME280;3928;42.626;23.382;2023-05-11T02:00:03;94381.84;;;11.18;77.30
7768;BME280;3928;42.626;23.382;2023-05-11T02:02:30;94400.41;;;11.32;77.14
7768;BME280;3928;42.626;23.382;2023-05-11T02:04:59;94396.00;;;11.40;76.45
7768;BME280;3928;42.626;23.382;2023-05-11T02:07:28;94395.84;;;11.48;75.52
7768;BME280;3928;42.626;23.382;2023-05-11T02:09:56;94396.94;;;11.34;76.36
7768;BME280;3928;42.626;23.382;2023-05-11T02:12:24;94392.38;;;11.50;75.72
7768;BME280;3928;42.626;23.382;2023-05-11T02:14:52;94399.09;;;11.57;75.38
7768;BME280;3928;42.626;23.382;2023-05-11T02:17:20;94396.13;;;11.77;74.76
7768;BME280;3928;42.626;23.382;2023-05-11T02:19:48;94390.94;;;11.82;74.18
7768;BME280;3928;42.626;23.382;2023-05-11T02:22:18;94381.56;;;11.78;74.27
7768;BME280;3928;42.626;23.382;2023-05-11T02:24:46;94385.03;;;11.75;74.29
7768;BME280;3928;42.626;23.382;2023-05-11T02:27:14;94390.94;;;11.82;73.83
7768;BME280;3928;42.626;23.382;2023-05-11T02:29:41;94395.47;;;11.67;74.97
7768;BME280;3928;42.626;23.382;2023-05-11T02:32:13;94394.50;;;11.73;74.19
7768;BME280;3928;42.626;23.382;2023-05-11T02:34:43;94392.16;;;11.62;74.78
7768;BME280;3928;42.626;23.382;2023-05-11T02:37:14;94388.00;;;11.55;74.61
7768;BME280;3928;42.626;23.382;2023-05-11T02:39:47;94388.53;;;11.71;74.67
7768;BME280;3928;42.626;23.382;2023-05-11T02:42:20;94392.91;;;11.67;74.48
7768;BME280;3928;42.626;23.382;2023-05-11T02:44:54;94397.13;;;11.25;75.82
7768;BME280;3928;42.626;23.382;2023-05-11T02:47:22;94396.75;;;11.45;75.59
7768;BME280;3928;42.626;23.382;2023-05-11T02:49:54;94390.84;;;11.40;75.76
7768;BME280;3928;42.626;23.382;2023-05-11T02:52:24;94379.34;;;11.15;76.58
7768;BME280;3928;42.626;23.382;2023-05-11T02:54:54;94330.47;;;10.70;76.97
7768;BME280;3928;42.626;23.382;2023-05-11T02:57:23;94393.06;;;11.13;77.83
7768;BME280;3928;42.626;23.382;2023-05-11T02:59:50;94387.09;;;11.10;77.56
7768;BME280;3928;42.626;23.382;2023-05-11T03:02:17;94374.72;;;10.84;78.31
7768;BME280;3928;42.626;23.382;2023-05-11T03:04:44;94321.16;;;10.63;78.20
7768;BME280;3928;42.626;23.382;2023-05-11T03:07:11;94396.59;;;11.06;78.32
7768;BME280;3928;42.626;23.382;2023-05-11T03:09:38;94384.94;;;10.86;78.62
7768;BME280;3928;42.626;23.382;2023-05-11T03:12:07;94378.81;;;10.94;78.76
7768;BME280;3928;42.626;23.382;2023-05-11T03:14:34;94364.56;;;10.78;79.19
7768;BME280;3928;42.626;23.382;2023-05-11T03:17:02;94365.34;;;10.81;80.17
7768;BME280;3928;42.626;23.382;2023-05-11T03:19:30;94393.78;;;11.20;78.33
7768;BME280;3928;42.626;23.382;2023-05-11T03:21:58;94377.94;;;10.95;79.44
7768;BME280;3928;42.626;23.382;2023-05-11T03:24:26;94389.75;;;11.05;78.85
7768;BME280;3928;42.626;23.382;2023-05-11T03:26:54;94381.97;;;11.10;78.44
7768;BME280;3928;42.626;23.382;2023-05-11T03:29:24;94386.66;;;10.85;79.63
7768;BME280;3928;42.626;23.382;2023-05-11T03:31:51;94391.38;;;11.09;79.07
7768;BME280;3928;42.626;23.382;2023-05-11T03:34:19;94395.00;;;10.98;79.81
7768;BME280;3928;42.626;23.382;2023-05-11T03:36:47;94394.63;;;11.21;78.40
7768;BME280;3928;42.626;23.382;2023-05-11T03:39:15;94391.25;;;11.19;78.73
7768;BME280;3928;42.626;23.382;2023-05-11T03:41:43;94394.84;;;11.08;79.13
7768;BME280;3928;42.626;23.382;2023-05-11T03:44:11;94391.47;;;11.05;79.67
7768;BME280;3928;42.626;23.382;2023-05-11T03:46:42;94370.22;;;10.97;79.55
7768;BME280;3928;42.626;23.382;2023-05-11T03:49:11;94401.59;;;11.14;79.25
7768;BME280;3928;42.626;23.382;2023-05-11T03:51:38;94399.81;;;11.18;78.61
7768;BME280;3928;42.626;23.382;2023-05-11T03:54:05;94398.84;;;11.25;78.25
7768;BME280;3928;42.626;23.382;2023-05-11T03:56:34;94389.19;;;11.36;77.40
7768;BME280;3928;42.626;23.382;2023-05-11T03:59:01;94409.03;;;11.29;78.34
7768;BME280;3928;42.626;23.382;2023-05-11T04:01:28;94408.94;;;11.34;78.25
7768;BME280;3928;42.626;23.382;2023-05-11T04:03:57;94408.97;;;11.32;78.49
7768;BME280;3928;42.626;23.382;2023-05-11T04:06:24;94413.31;;;11.29;78.21
7768;BME280;3928;42.626;23.382;2023-05-11T04:08:51;94403.63;;;11.43;80.48
7768;BME280;3928;42.626;23.382;2023-05-11T04:11:17;94412.13;;;11.47;77.69
7768;BME280;3928;42.626;23.382;2023-05-11T04:13:46;94406.72;;;11.16;79.11
7768;BME280;3928;42.626;23.382;2023-05-11T04:16:13;94375.56;;;10.84;79.66
7768;BME280;3928;42.626;23.382;2023-05-11T04:18:39;94414.56;;;11.06;80.09
7768;BME280;3928;42.626;23.382;2023-05-11T04:21:07;94411.28;;;10.98;80.90
7768;BME280;3928;42.626;23.382;2023-05-11T04:23:34;94412.78;;;11.10;79.88
7768;BME280;3928;42.626;23.382;2023-05-11T04:26:01;94413.63;;;11.10;79.92
7768;BME280;3928;42.626;23.382;2023-05-11T04:28:28;94417.31;;;10.96;81.09
7768;BME280;3928;42.626;23.382;2023-05-11T04:30:56;94418.28;;;10.90;81.52
7768;BME280;3928;42.626;23.382;2023-05-11T04:33:23;94434.88;;;10.68;82.84
7768;BME280;3928;42.626;23.382;2023-05-11T04:35:51;94432.47;;;10.57;84.20
7768;BME280;3928;42.626;23.382;2023-05-11T04:38:19;94429.53;;;10.81;82.39
7768;BME280;3928;42.626;23.382;2023-05-11T04:40:47;94430.59;;;10.68;82.92
7768;BME280;3928;42.626;23.382;2023-05-11T04:43:15;94428.84;;;10.70;83.85
7768;BME280;3928;42.626;23.382;2023-05-11T04:45:46;94401.44;;;10.71;82.56
7768;BME280;3928;42.626;23.382;2023-05-11T04:48:13;94430.91;;;11.02;82.17
7768;BME280;3928;42.626;23.382;2023-05-11T04:50:40;94431.38;;;10.72;83.75
7768;BME280;3928;42.626;23.382;2023-05-11T04:53:07;94423.28;;;10.41;86.07
7768;BME280;3928;42.626;23.382;2023-05-11T04:55:35;94430.34;;;10.25;86.25
7768;BME280;3928;42.626;23.382;2023-05-11T04:58:02;94437.81;;;10.42;86.54
7768;BME280;3928;42.626;23.382;2023-05-11T05:00:29;94433.44;;;10.48;86.81
7768;BME280;3928;42.626;23.382;2023-05-11T05:02:55;94442.94;;;10.40;87.23
7768;BME280;3928;42.626;23.382;2023-05-11T05:05:22;94443.69;;;10.48;87.11
7768;BME280;3928;42.626;23.382;2023-05-11T05:07:49;94439.47;;;10.46;86.36
7768;BME280;3928;42.626;23.382;2023-05-11T05:10:16;94451.13;;;10.65;86.28
7768;BME280;3928;42.626;23.382;2023-05-11T05:12:44;94435.03;;;10.57;86.88
7768;BME280;3928;42.626;23.382;2023-05-11T05:15:11;94454.41;;;10.78;86.59
7768;BME280;3928;42.626;23.382;2023-05-11T05:17:38;94452.50;;;10.31;88.17
7768;BME280;3928;42.626;23.382;2023-05-11T05:20:06;94461.75;;;10.42;89.00
7768;BME280;3928;42.626;23.382;2023-05-11T05:22:33;94451.06;;;10.71;88.25
7768;BME280;3928;42.626;23.382;2023-05-11T05:25:00;94452.81;;;10.69;88.05
7768;BME280;3928;42.626;23.382;2023-05-11T05:27:27;94453.72;;;10.67;86.96
7768;BME280;3928;42.626;23.382;2023-05-11T05:29:55;94456.72;;;10.35;88.61
7768;BME280;3928;42.626;23.382;2023-05-11T05:32:22;94454.22;;;10.29;88.83
7768;BME280;3928;42.626;23.382;2023-05-11T05:34:49;94454.03;;;10.44;89.28
7768;BME280;3928;42.626;23.382;2023-05-11T05:37:15;94458.06;;;10.60;88.26
7768;BME280;3928;42.626;23.382;2023-05-11T05:39:42;94455.38;;;10.69;87.42
7768;BME280;3928;42.626;23.382;2023-05-11T05:42:09;94461.53;;;10.58;87.04
7768;BME280;3928;42.626;23.382;2023-05-11T05:44:36;94461.28;;;10.74;86.74
7768;BME280;3928;42.626;23.382;2023-05-11T05:47:04;94462.03;;;10.82;86.05
7768;BME280;3928;42.626;23.382;2023-05-11T05:49:31;94451.69;;;10.86;85.54
7768;BME280;3928;42.626;23.382;2023-05-11T05:51:58;94464.25;;;11.04;84.79
7768;BME280;3928;42.626;23.382;2023-05-11T05:54:25;94454.03;;;11.02;90.77
7768;BME280;3928;42.626;23.382;2023-05-11T05:56:52;94462.91;;;11.34;85.55
7768;BME280;3928;42.626;23.382;2023-05-11T05:59:18;94462.63;;;10.98;86.27
7768;BME280;3928;42.626;23.382;2023-05-11T06:01:48;94439.66;;;10.89;84.32
7768;BME280;3928;42.626;23.382;2023-05-11T06:04:16;94452.59;;;10.83;84.45
7768;BME280;3928;42.626;23.382;2023-05-11T06:06:43;94463.25;;;11.12;83.44
7768;BME280;3928;42.626;23.382;2023-05-11T06:09:10;94475.97;;;10.63;85.48
7768;BME280;3928;42.626;23.382;2023-05-11T06:11:37;94462.56;;;10.44;86.25
7768;BME280;3928;42.626;23.382;2023-05-11T06:14:04;94479.84;;;10.33;87.12
7768;BME280;3928;42.626;23.382;2023-05-11T06:16:31;94481.66;;;10.20;87.50
7768;BME280;3928;42.626;23.382;2023-05-11T06:18:57;94485.63;;;10.47;87.63
7768;BME280;3928;42.626;23.382;2023-05-11T06:21:26;94485.97;;;10.20;87.60
7768;BME280;3928;42.626;23.382;2023-05-11T06:23:52;94491.56;;;10.49;87.36
7768;BME280;3928;42.626;23.382;2023-05-11T06:26:19;94496.72;;;10.49;87.85
7768;BME280;3928;42.626;23.382;2023-05-11T06:28:49;94469.06;;;10.70;86.79
7768;BME280;3928;42.626;23.382;2023-05-11T06:31:16;94493.56;;;10.91;86.18
7768;BME280;3928;42.626;23.382;2023-05-11T06:33:43;94492.31;;;10.59;86.41
7768;BME280;3928;42.626;23.382;2023-05-11T06:36:10;94504.13;;;10.71;86.32
7768;BME280;3928;42.626;23.382;2023-05-11T06:38:38;94497.63;;;10.45;88.00
7768;BME280;3928;42.626;23.382;2023-05-11T06:41:05;94487.66;;;10.19;88.37
7768;BME280;3928;42.626;23.382;2023-05-11T06:43:31;94494.47;;;10.25;89.00
7768;BME280;3928;42.626;23.382;2023-05-11T06:45:58;94509.66;;;10.39;87.58
7768;BME280;3928;42.626;23.382;2023-05-11T06:48:25;94503.59;;;10.47;87.00
7768;BME280;3928;42.626;23.382;2023-05-11T06:50:54;94491.75;;;10.37;88.12
7768;BME280;3928;42.626;23.382;2023-05-11T06:53:21;94488.16;;;10.49;87.61
7768;BME280;3928;42.626;23.382;2023-05-11T06:55:49;94472.78;;;10.49;86.13
7768;BME280;3928;42.626;23.382;2023-05-11T06:58:16;94501.38;;;10.83;86.15
7768;BME280;3928;42.626;23.382;2023-05-11T07:00:45;94475.47;;;10.98;85.39
7768;BME280;3928;42.626;23.382;2023-05-11T07:03:11;94502.22;;;10.83;85.19
7768;BME280;3928;42.626;23.382;2023-05-11T07:05:38;94485.97;;;10.83;85.65
7768;BME280;3928;42.626;23.382;2023-05-11T07:08:05;94495.16;;;10.98;84.55
7768;BME280;3928;42.626;23.382;2023-05-11T07:10:32;94504.41;;;11.09;84.80
7768;BME280;3928;42.626;23.382;2023-05-11T07:13:00;94498.69;;;10.92;84.41
7768;BME280;3928;42.626;23.382;2023-05-11T07:15:27;94512.22;;;11.03;84.29
7768;BME280;3928;42.626;23.382;2023-05-11T07:17:54;94498.75;;;10.86;84.21
7768;BME280;3928;42.626;23.382;2023-05-11T07:20:21;94492.94;;;10.75;84.37
7768;BME280;3928;42.626;23.382;2023-05-11T07:22:47;94502.78;;;11.04;84.33
7768;BME280;3928;42.626;23.382;2023-05-11T07:25:14;94499.53;;;10.93;83.47
7768;BME280;3928;42.626;23.382;2023-05-11T07:27:41;94510.00;;;10.79;84.46
7768;BME280;3928;42.626;23.382;2023-05-11T07:30:11;94505.47;;;10.96;83.85
7768;BME280;3928;42.626;23.382;2023-05-11T07:32:37;94512.25;;;11.02;83.61
7768;BME280;3928;42.626;23.382;2023-05-11T07:35:05;94505.47;;;10.96;83.67
7768;BME280;3928;42.626;23.382;2023-05-11T07:37:32;94479.22;;;10.76;84.10
7768;BME280;3928;42.626;23.382;2023-05-11T07:39:59;94475.84;;;10.74;84.78
7768;BME280;3928;42.626;23.382;2023-05-11T07:42:25;94511.88;;;11.23;83.02
7768;BME280;3928;42.626;23.382;2023-05-11T07:44:52;94506.66;;;11.29;80.62
7768;BME280;3928;42.626;23.382;2023-05-11T07:47:20;94490.28;;;11.35;80.00
7768;BME280;3928;42.626;23.382;2023-05-11T07:49:47;94506.88;;;11.66;79.75
7768;BME280;3928;42.626;23.382;2023-05-11T07:52:15;94497.75;;;11.50;79.22
7768;BME280;3928;42.626;23.382;2023-05-11T07:54:42;94500.09;;;11.62;77.64
7768;BME280;3928;42.626;23.382;2023-05-11T07:57:09;94498.88;;;11.85;76.74
7768;BME280;3928;42.626;23.382;2023-05-11T07:59:38;94499.38;;;12.04;75.85
7768;BME280;3928;42.626;23.382;2023-05-11T08:02:06;94483.03;;;12.06;74.50
7768;BME280;3928;42.626;23.382;2023-05-11T08:04:35;94510.16;;;12.22;73.40
7768;BME280;3928;42.626;23.382;2023-05-11T08:07:02;94494.03;;;12.14;73.55
7768;BME280;3928;42.626;23.382;2023-05-11T08:09:29;94507.16;;;12.44;73.18
7768;BME280;3928;42.626;23.382;2023-05-11T08:11:56;94494.28;;;12.44;72.20
7768;BME280;3928;42.626;23.382;2023-05-11T08:14:26;94451.22;;;12.10;71.47
7768;BME280;3928;42.626;23.382;2023-05-11T08:16:53;94498.63;;;12.40;71.17
7768;BME280;3928;42.626;23.382;2023-05-11T08:19:19;94500.22;;;12.47;71.37
7768;BME280;3928;42.626;23.382;2023-05-11T08:21:47;94477.81;;;12.51;71.51
7768;BME280;3928;42.626;23.382;2023-05-11T08:24:15;94502.13;;;12.78;69.67
7768;BME280;3928;42.626;23.382;2023-05-11T08:26:42;94499.03;;;13.02;69.38
7768;BME280;3928;42.626;23.382;2023-05-11T08:29:09;94495.34;;;13.11;67.80
7768;BME280;3928;42.626;23.382;2023-05-11T08:31:36;94504.34;;;13.32;67.02
7768;BME280;3928;42.626;23.382;2023-05-11T08:34:03;94487.97;;;13.34;66.58
7768;BME280;3928;42.626;23.382;2023-05-11T08:36:30;94496.03;;;13.21;67.10
7768;BME280;3928;42.626;23.382;2023-05-11T08:38:59;94495.53;;;13.05;67.56
7768;BME280;3928;42.626;23.382;2023-05-11T08:41:26;94502.19;;;13.12;68.60
7768;BME280;3928;42.626;23.382;2023-05-11T08:43:54;94493.53;;;13.16;68.07
7768;BME280;3928;42.626;23.382;2023-05-11T08:46:23;94495.91;;;13.27;66.56
7768;BME280;3928;42.626;23.382;2023-05-11T08:48:54;94483.28;;;13.14;66.31
7768;BME280;3928;42.626;23.382;2023-05-11T08:51:21;94488.03;;;13.31;66.36
7768;BME280;3928;42.626;23.382;2023-05-11T08:53:48;94499.03;;;13.01;67.48
7768;BME280;3928;42.626;23.382;2023-05-11T08:56:19;94500.38;;;13.17;67.58
7768;BME280;3928;42.626;23.382;2023-05-11T08:58:49;94504.81;;;13.10;68.58
7768;BME280;3928;42.626;23.382;2023-05-11T09:01:18;94483.59;;;13.38;68.63
7768;BME280;3928;42.626;23.382;2023-05-11T09:03:48;94486.84;;;13.44;67.25
7768;BME280;3928;42.626;23.382;2023-05-11T09:06:16;94487.44;;;13.56;66.04
7768;BME280;3928;42.626;23.382;2023-05-11T09:08:43;94492.47;;;13.26;67.92
7768;BME280;3928;42.626;23.382;2023-05-11T09:11:12;94469.59;;;13.46;67.38
7768;BME280;3928;42.626;23.382;2023-05-11T09:13:40;94462.19;;;13.34;67.53
7768;BME280;3928;42.626;23.382;2023-05-11T09:16:07;94489.13;;;13.57;68.22
7768;BME280;3928;42.626;23.382;2023-05-11T09:18:34;94486.69;;;13.15;68.94
7768;BME280;3928;42.626;23.382;2023-05-11T09:21:01;94487.91;;;12.99;69.41
7768;BME280;3928;42.626;23.382;2023-05-11T09:23:28;94487.94;;;12.60;72.13
7768;BME280;3928;42.626;23.382;2023-05-11T09:25:55;94486.69;;;12.76;72.16
7768;BME280;3928;42.626;23.382;2023-05-11T09:28:23;94491.91;;;13.12;70.82
7768;BME280;3928;42.626;23.382;2023-05-11T09:30:52;94487.53;;;13.53;68.97
7768;BME280;3928;42.626;23.382;2023-05-11T09:33:22;94495.03;;;13.62;68.79
7768;BME280;3928;42.626;23.382;2023-05-11T09:35:50;94492.72;;;13.50;68.81
7768;BME280;3928;42.626;23.382;2023-05-11T09:38:17;94489.28;;;13.83;67.66
7768;BME280;3928;42.626;23.382;2023-05-11T09:40:52;94480.50;;;13.58;68.48
7768;BME280;3928;42.626;23.382;2023-05-11T09:43:22;94499.41;;;13.58;69.17
7768;BME280;3928;42.626;23.382;2023-05-11T09:45:52;94495.09;;;13.59;68.89
7768;BME280;3928;42.626;23.382;2023-05-11T09:48:27;94491.97;;;13.80;69.03
7768;BME280;3928;42.626;23.382;2023-05-11T09:51:05;94483.34;;;13.81;68.30
7768;BME280;3928;42.626;23.382;2023-05-11T09:53:39;94489.16;;;13.89;68.80
7768;BME280;3928;42.626;23.382;2023-05-11T09:56:07;94463.88;;;13.69;69.03
7768;BME280;3928;42.626;23.382;2023-05-11T09:58:45;94466.97;;;13.12;71.18
7768;BME280;3928;42.626;23.382;2023-05-11T10:01:14;94466.31;;;13.41;70.34
7768;BME280;3928;42.626;23.382;2023-05-11T10:03:46;94484.59;;;13.66;69.27
7768;BME280;3928;42.626;23.382;2023-05-11T10:06:13;94476.66;;;13.74;68.62
7768;BME280;3928;42.626;23.382;2023-05-11T10:08:40;94466.66;;;13.62;68.68
7768;BME280;3928;42.626;23.382;2023-05-11T10:11:08;94472.78;;;13.58;68.23
7768;BME280;3928;42.626;23.382;2023-05-11T10:13:35;94476.81;;;13.68;67.89
7768;BME280;3928;42.626;23.382;2023-05-11T10:16:03;94436.38;;;13.36;68.72
7768;BME280;3928;42.626;23.382;2023-05-11T10:18:32;94460.03;;;13.52;69.25
7768;BME280;3928;42.626;23.382;2023-05-11T10:20:59;94458.06;;;13.61;67.41
7768;BME280;3928;42.626;23.382;2023-05-11T10:23:27;94442.63;;;13.60;67.21
7768;BME280;3928;42.626;23.382;2023-05-11T10:25:59;94460.44;;;13.69;65.98
7768;BME280;3928;42.626;23.382;2023-05-11T10:28:25;94451.50;;;13.82;65.91
7768;BME280;3928;42.626;23.382;2023-05-11T10:30:53;94442.38;;;13.69;65.82
7768;BME280;3928;42.626;23.382;2023-05-11T10:33:20;94452.00;;;13.30;67.23
7768;BME280;3928;42.626;23.382;2023-05-11T10:35:49;94442.56;;;13.29;68.24
7768;BME280;3928;42.626;23.382;2023-05-11T10:38:16;94428.13;;;13.56;66.89
7768;BME280;3928;42.626;23.382;2023-05-11T10:40:46;94439.25;;;13.58;67.78
7768;BME280;3928;42.626;23.382;2023-05-11T10:43:35;94409.47;;;13.46;67.67
7768;BME280;3928;42.626;23.382;2023-05-11T10:46:19;94439.66;;;13.42;67.34
7768;BME280;3928;42.626;23.382;2023-05-11T10:49:06;94439.84;;;12.98;69.92
7768;BME280;3928;42.626;23.382;2023-05-11T10:54:53;94438.84;;;13.05;69.62
7768;BME280;3928;42.626;23.382;2023-05-11T10:57:39;94438.03;;;13.01;70.10
7768;BME280;3928;42.626;23.382;2023-05-11T11:00:40;94436.09;;;13.46;67.46
7768;BME280;3928;42.626;23.382;2023-05-11T11:03:13;94438.78;;;13.76;66.99
7768;BME280;3928;42.626;23.382;2023-05-11T11:05:41;94361.97;;;13.22;66.76
7768;BME280;3928;42.626;23.382;2023-05-11T11:08:09;94423.53;;;13.67;67.99
7768;BME280;3928;42.626;23.382;2023-05-11T11:10:38;94435.91;;;13.87;66.34
7768;BME280;3928;42.626;23.382;2023-05-11T11:13:09;94427.16;;;13.60;68.17
7768;BME280;3928;42.626;23.382;2023-05-11T11:16:09;94415.56;;;13.43;66.95
7768;BME280;3928;42.626;23.382;2023-05-11T11:18:37;94419.13;;;13.39;68.13
7768;BME280;3928;42.626;23.382;2023-05-11T11:21:04;94417.03;;;13.54;67.89
7768;BME280;3928;42.626;23.382;2023-05-11T11:23:43;94425.31;;;13.96;66.80
7768;BME280;3928;42.626;23.382;2023-05-11T11:26:16;94433.47;;;14.41;64.67
7768;BME280;3928;42.626;23.382;2023-05-11T11:29:09;94436.53;;;14.55;64.71
7768;BME280;3928;42.626;23.382;2023-05-11T11:31:36;94435.19;;;14.72;63.85
7768;BME280;3928;42.626;23.382;2023-05-11T11:34:34;94423.09;;;14.44;64.18
7768;BME280;3928;42.626;23.382;2023-05-11T11:37:05;94428.00;;;14.53;63.99
7768;BME280;3928;42.626;23.382;2023-05-11T11:39:47;94428.47;;;14.94;62.31
7768;BME280;3928;42.626;23.382;2023-05-11T11:42:17;94431.00;;;14.96;61.05
7768;BME280;3928;42.626;23.382;2023-05-11T11:44:44;94432.09;;;14.88;61.68
7768;BME280;3928;42.626;23.382;2023-05-11T11:47:13;94242.03;;;13.41;62.79
7768;BME280;3928;42.626;23.382;2023-05-11T11:49:42;94422.66;;;14.59;62.49
7768;BME280;3928;42.626;23.382;2023-05-11T11:52:13;94412.84;;;14.71;62.72
7768;BME280;3928;42.626;23.382;2023-05-11T11:54:43;94416.88;;;14.51;63.63
7768;BME280;3928;42.626;23.382;2023-05-11T11:57:42;94429.53;;;14.87;61.64
7768;BME280;3928;42.626;23.382;2023-05-11T12:00:19;94427.03;;;14.57;63.23
7768;BME280;3928;42.626;23.382;2023-05-11T12:02:47;94434.66;;;14.60;62.15
7768;BME280;3928;42.626;23.382;2023-05-11T12:05:14;94418.94;;;14.09;64.66
7768;BME280;3928;42.626;23.382;2023-05-11T12:07:44;94419.53;;;14.48;63.95
7768;BME280;3928;42.626;23.382;2023-05-11T12:10:12;94422.50;;;14.64;63.51
7768;BME280;3928;42.626;23.382;2023-05-11T12:12:39;94425.44;;;14.80;62.94
7768;BME280;3928;42.626;23.382;2023-05-11T12:15:23;94422.22;;;14.45;63.80
7768;BME280;3928;42.626;23.382;2023-05-11T12:17:50;94422.22;;;14.44;65.32
7768;BME280;3928;42.626;23.382;2023-05-11T12:20:18;94413.19;;;13.99;66.07
7768;BME280;3928;42.626;23.382;2023-05-11T12:22:46;94404.25;;;14.11;66.33
7768;BME280;3928;42.626;23.382;2023-05-11T12:25:13;94397.81;;;14.26;64.88
7768;BME280;3928;42.626;23.382;2023-05-11T12:27:48;94392.94;;;13.86;64.68
7768;BME280;3928;42.626;23.382;2023-05-11T12:30:21;94416.03;;;13.90;65.71
7768;BME280;3928;42.626;23.382;2023-05-11T12:32:48;94401.13;;;13.69;67.22
7768;BME280;3928;42.626;23.382;2023-05-11T12:35:21;94397.09;;;13.59;67.38
7768;BME280;3928;42.626;23.382;2023-05-11T12:37:49;94385.00;;;13.61;68.20
7768;BME280;3928;42.626;23.382;2023-05-11T12:40:17;94404.59;;;13.68;66.48
7768;BME280;3928;42.626;23.382;2023-05-11T12:42:50;94385.06;;;13.59;67.51
7768;BME280;3928;42.626;23.382;2023-05-11T12:45:18;94380.75;;;13.60;67.51
7768;BME280;3928;42.626;23.382;2023-05-11T12:47:47;94381.47;;;13.65;67.63
7768;BME280;3928;42.626;23.382;2023-05-11T12:50:15;94374.88;;;13.22;69.10
7768;BME280;3928;42.626;23.382;2023-05-11T12:52:42;94359.81;;;13.39;68.58
7768;BME280;3928;42.626;23.382;2023-05-11T12:55:09;94364.66;;;13.19;68.68
7768;BME280;3928;42.626;23.382;2023-05-11T12:57:37;94380.09;;;13.19;69.82
7768;BME280;3928;42.626;23.382;2023-05-11T13:00:09;94363.63;;;13.57;68.09
7768;BME280;3928;42.626;23.382;2023-05-11T13:02:44;94361.56;;;13.37;68.36
7768;BME280;3928;42.626;23.382;2023-05-11T13:05:13;94345.81;;;13.15;68.38
7768;BME280;3928;42.626;23.382;2023-05-11T13:07:40;94364.13;;;13.39;69.01
7768;BME280;3928;42.626;23.382;2023-05-11T13:10:09;94359.44;;;13.53;68.62
7768;BME280;3928;42.626;23.382;2023-05-11T13:12:47;94342.69;;;13.68;67.80
7768;BME280;3928;42.626;23.382;2023-05-11T13:15:14;94368.50;;;13.35;68.83
7768;BME280;3928;42.626;23.382;2023-05-11T13:17:41;94360.19;;;13.57;68.76
7768;BME280;3928;42.626;23.382;2023-05-11T13:20:17;94355.78;;;13.62;68.77
7768;BME280;3928;42.626;23.382;2023-05-11T13:22:44;94350.06;;;13.51;68.49
7768;BME280;3928;42.626;23.382;2023-05-11T13:25:13;94320.34;;;13.37;67.87